sensor_id;sensor_type;location;lat;lon;timestamp;P1;durP1;ratioP1;P2;durP2;ratioP2
30036;SDS011;36325;51.512;-0.382;2023-08-06T00:02:02;11.20;;;2.50;;
30036;SDS011;36325;51.512;-0.382;2023-08-06T00:04:43;5.63;;;2.70;;
30036;SDS011;36325;51.512;-0.382;2023-08-06T00:07:12;6.07;;;2.50;;
30036;SDS011;36325;51.512;-0.382;2023-08-06T00:16:29;7.13;;;3.22;;
30036;SDS011;36325;51.512;-0.382;2023-08-06T00:19:00;8.90;;;3.63;;
30036;SDS011;36325;51.512;-0.382;2023-08-06T00:24:23;9.07;;;2.73;;
30036;SDS011;36325;51.512;-0.382;2023-08-06T00:26:55;8.85;;;3.55;;
30036;SDS011;36325;51.512;-0.382;2023-08-06T00:29:23;5.28;;;2.30;;
30036;SDS011;36325;51.512;-0.382;2023-08-06T00:32:04;4.25;;;2.33;;
30036;SDS011;36325;51.512;-0.382;2023-08-06T00:34:35;4.35;;;1.98;;
30036;SDS011;36325;51.512;-0.382;2023-08-06T00:37:04;8.35;;;2.55;;
30036;SDS011;36325;51.512;-0.382;2023-08-06T00:39:37;7.07;;;2.83;;
30036;SDS011;36325;51.512;-0.382;2023-08-06T00:42:05;10.68;;;3.17;;
30036;SDS011;36325;51.512;-0.382;2023-08-06T00:44:55;9.05;;;2.92;;
30036;SDS011;36325;51.512;-0.382;2023-08-06T00:47:23;6.50;;;2.85;;
30036;SDS011;36325;51.512;-0.382;2023-08-06T00:49:52;9.18;;;2.75;;
30036;SDS011;36325;51.512;-0.382;2023-08-06T00:52:20;7.57;;;2.90;;
30036;SDS011;36325;51.512;-0.382;2023-08-06T00:54:54;8.52;;;3.17;;
30036;SDS011;36325;51.512;-0.382;2023-08-06T00:57:24;5.43;;;3.03;;
30036;SDS011;36325;51.512;-0.382;2023-08-06T00:59:58;10.03;;;2.90;;
30036;SDS011;36325;51.512;-0.382;2023-08-06T01:02:26;6.97;;;3.33;;
30036;SDS011;36325;51.512;-0.382;2023-08-06T01:04:54;12.35;;;4.13;;
30036;SDS011;36325;51.512;-0.382;2023-08-06T01:10:33;8.30;;;3.25;;
30036;SDS011;36325;51.512;-0.382;2023-08-06T01:13:30;7.95;;;3.38;;
30036;SDS011;36325;51.512;-0.382;2023-08-06T01:16:18;7.25;;;3.33;;
30036;SDS011;36325;51.512;-0.382;2023-08-06T01:18:52;8.15;;;3.03;;
30036;SDS011;36325;51.512;-0.382;2023-08-06T01:21:23;7.10;;;3.13;;
30036;SDS011;36325;51.512;-0.382;2023-08-06T01:23:54;5.53;;;3.00;;
30036;SDS011;36325;51.512;-0.382;2023-08-06T01:29:25;9.68;;;3.92;;
30036;SDS011;36325;51.512;-0.382;2023-08-06T01:32:08;7.68;;;3.20;;
30036;SDS011;36325;51.512;-0.382;2023-08-06T01:34:40;7.47;;;3.20;;
30036;SDS011;36325;51.512;-0.382;2023-08-06T01:37:13;7.18;;;2.60;;
30036;SDS011;36325;51.512;-0.382;2023-08-06T01:39:59;6.57;;;3.20;;
30036;SDS011;36325;51.512;-0.382;2023-08-06T01:48:13;12.05;;;2.90;;
30036;SDS011;36325;51.512;-0.382;2023-08-06T01:50:53;7.53;;;2.80;;
30036;SDS011;36325;51.512;-0.382;2023-08-06T01:53:23;9.52;;;2.70;;
30036;SDS011;36325;51.512;-0.382;2023-08-06T01:55:51;12.00;;;3.67;;
30036;SDS011;36325;51.512;-0.382;2023-08-06T02:01:13;13.07;;;2.97;;
30036;SDS011;36325;51.512;-0.382;2023-08-06T02:03:55;7.07;;;3.22;;
30036;SDS011;36325;51.512;-0.382;2023-08-06T02:06:23;9.18;;;2.78;;
30036;SDS011;36325;51.512;-0.382;2023-08-06T02:08:53;8.07;;;3.30;;
30036;SDS011;36325;51.512;-0.382;2023-08-06T02:11:24;9.10;;;3.25;;
30036;SDS011;36325;51.512;-0.382;2023-08-06T02:13:52;9.40;;;3.22;;
30036;SDS011;36325;51.512;-0.382;2023-08-06T02:16:21;6.95;;;2.75;;
30036;SDS011;36325;51.512;-0.382;2023-08-06T02:18:51;7.20;;;3.38;;
30036;SDS011;36325;51.512;-0.382;2023-08-06T02:21:20;12.25;;;3.10;;
30036;SDS011;36325;51.512;-0.382;2023-08-06T02:23:50;8.02;;;3.15;;
30036;SDS011;36325;51.512;-0.382;2023-08-06T02:26:18;12.13;;;3.50;;
30036;SDS011;36325;51.512;-0.382;2023-08-06T02:28:45;11.18;;;3.42;;
30036;SDS011;36325;51.512;-0.382;2023-08-06T02:33:48;8.27;;;3.42;;
30036;SDS011;36325;51.512;-0.382;2023-08-06T02:36:29;6.53;;;3.05;;
30036;SDS011;36325;51.512;-0.382;2023-08-06T02:39:17;10.70;;;3.13;;
30036;SDS011;36325;51.512;-0.382;2023-08-06T02:44:39;5.32;;;3.00;;
30036;SDS011;36325;51.512;-0.382;2023-08-06T02:47:07;7.35;;;3.53;;
30036;SDS011;36325;51.512;-0.382;2023-08-06T02:49:37;8.88;;;3.30;;
30036;SDS011;36325;51.512;-0.382;2023-08-06T02:52:13;12.98;;;4.00;;
30036;SDS011;36325;51.512;-0.382;2023-08-06T02:54:43;6.07;;;3.30;;
30036;SDS011;36325;51.512;-0.382;2023-08-06T02:59:54;7.53;;;4.03;;
30036;SDS011;36325;51.512;-0.382;2023-08-06T03:02:22;5.68;;;2.72;;
30036;SDS011;36325;51.512;-0.382;2023-08-06T03:05:19;7.05;;;3.83;;
30036;SDS011;36325;51.512;-0.382;2023-08-06T03:07:50;10.38;;;3.75;;
30036;SDS011;36325;51.512;-0.382;2023-08-06T03:10:24;8.57;;;3.25;;
30036;SDS011;36325;51.512;-0.382;2023-08-06T03:12:59;10.93;;;4.35;;
30036;SDS011;36325;51.512;-0.382;2023-08-06T03:15:28;7.45;;;3.40;;
30036;SDS011;36325;51.512;-0.382;2023-08-06T03:18:06;11.48;;;3.92;;
30036;SDS011;36325;51.512;-0.382;2023-08-06T03:23:36;12.30;;;3.80;;
30036;SDS011;36325;51.512;-0.382;2023-08-06T03:26:10;6.68;;;3.42;;
30036;SDS011;36325;51.512;-0.382;2023-08-06T03:28:40;6.13;;;3.60;;
30036;SDS011;36325;51.512;-0.382;2023-08-06T03:31:09;8.25;;;3.35;;
30036;SDS011;36325;51.512;-0.382;2023-08-06T03:33:44;8.43;;;3.92;;
30036;SDS011;36325;51.512;-0.382;2023-08-06T03:36:20;10.30;;;3.35;;
30036;SDS011;36325;51.512;-0.382;2023-08-06T03:38:51;8.32;;;3.72;;
30036;SDS011;36325;51.512;-0.382;2023-08-06T03:41:28;9.38;;;3.40;;
30036;SDS011;36325;51.512;-0.382;2023-08-06T03:44:04;13.52;;;4.28;;
30036;SDS011;36325;51.512;-0.382;2023-08-06T03:46:33;11.18;;;3.65;;
30036;SDS011;36325;51.512;-0.382;2023-08-06T03:49:10;6.35;;;3.42;;
30036;SDS011;36325;51.512;-0.382;2023-08-06T03:51:48;8.40;;;3.75;;
30036;SDS011;36325;51.512;-0.382;2023-08-06T03:54:17;14.50;;;4.22;;
30036;SDS011;36325;51.512;-0.382;2023-08-06T03:56:48;6.22;;;3.53;;
30036;SDS011;36325;51.512;-0.382;2023-08-06T03:59:16;5.30;;;3.05;;
30036;SDS011;36325;51.512;-0.382;2023-08-06T04:01:48;9.02;;;4.40;;
30036;SDS011;36325;51.512;-0.382;2023-08-06T04:04:16;6.47;;;3.13;;
30036;SDS011;36325;51.512;-0.382;2023-08-06T04:06:45;10.20;;;3.83;;
30036;SDS011;36325;51.512;-0.382;2023-08-06T04:12:03;7.72;;;3.47;;
30036;SDS011;36325;51.512;-0.382;2023-08-06T04:14:31;8.75;;;4.18;;
30036;SDS011;36325;51.512;-0.382;2023-08-06T04:20:04;8.32;;;4.63;;
30036;SDS011;36325;51.512;-0.382;2023-08-06T04:22:32;9.05;;;3.45;;
30036;SDS011;36325;51.512;-0.382;2023-08-06T04:25:00;7.32;;;3.90;;
30036;SDS011;36325;51.512;-0.382;2023-08-06T04:27:29;7.78;;;3.75;;
30036;SDS011;36325;51.512;-0.382;2023-08-06T04:29:59;8.32;;;3.15;;
30036;SDS011;36325;51.512;-0.382;2023-08-06T04:32:28;14.32;;;3.80;;
30036;SDS011;36325;51.512;-0.382;2023-08-06T04:34:58;18.45;;;4.50;;
30036;SDS011;36325;51.512;-0.382;2023-08-06T04:41:35;11.30;;;3.83;;
30036;SDS011;36325;51.512;-0.382;2023-08-06T04:44:23;10.70;;;3.80;;
30036;SDS011;36325;51.512;-0.382;2023-08-06T04:49:48;12.07;;;4.07;;
30036;SDS011;36325;51.512;-0.382;2023-08-06T04:52:23;11.77;;;4.05;;
30036;SDS011;36325;51.512;-0.382;2023-08-06T04:54:55;9.88;;;3.72;;
30036;SDS011;36325;51.512;-0.382;2023-08-06T04:57:23;7.40;;;3.70;;
30036;SDS011;36325;51.512;-0.382;2023-08-06T04:59:51;10.23;;;4.30;;
30036;SDS011;36325;51.512;-0.382;2023-08-06T05:02:19;13.55;;;3.80;;
30036;SDS011;36325;51.512;-0.382;2023-08-06T05:04:48;9.57;;;4.18;;
30036;SDS011;36325;51.512;-0.382;2023-08-06T05:07:22;8.82;;;3.78;;
30036;SDS011;36325;51.512;-0.382;2023-08-06T05:09:52;7.80;;;3.70;;
30036;SDS011;36325;51.512;-0.382;2023-08-06T05:12:23;10.70;;;3.95;;
30036;SDS011;36325;51.512;-0.382;2023-08-06T05:14:51;8.77;;;3.33;;
30036;SDS011;36325;51.512;-0.382;2023-08-06T05:17:22;9.35;;;3.45;;
30036;SDS011;36325;51.512;-0.382;2023-08-06T05:19:52;7.85;;;3.28;;
30036;SDS011;36325;51.512;-0.382;2023-08-06T05:22:28;13.05;;;3.42;;
30036;SDS011;36325;51.512;-0.382;2023-08-06T05:24:57;10.23;;;3.90;;
30036;SDS011;36325;51.512;-0.382;2023-08-06T05:27:35;12.80;;;3.53;;
30036;SDS011;36325;51.512;-0.382;2023-08-06T05:30:04;8.27;;;3.85;;
30036;SDS011;36325;51.512;-0.382;2023-08-06T05:32:33;8.73;;;3.78;;
30036;SDS011;36325;51.512;-0.382;2023-08-06T05:37:58;11.55;;;4.03;;
30036;SDS011;36325;51.512;-0.382;2023-08-06T05:40:26;9.52;;;3.33;;
30036;SDS011;36325;51.512;-0.382;2023-08-06T05:42:54;6.28;;;3.25;;
30036;SDS011;36325;51.512;-0.382;2023-08-06T05:45:27;5.60;;;3.50;;
30036;SDS011;36325;51.512;-0.382;2023-08-06T05:47:54;8.10;;;3.53;;
30036;SDS011;36325;51.512;-0.382;2023-08-06T05:50:28;10.35;;;3.30;;
30036;SDS011;36325;51.512;-0.382;2023-08-06T05:52:55;6.22;;;3.35;;
30036;SDS011;36325;51.512;-0.382;2023-08-06T05:55:27;7.88;;;3.50;;
30036;SDS011;36325;51.512;-0.382;2023-08-06T05:57:57;6.57;;;3.03;;
30036;SDS011;36325;51.512;-0.382;2023-08-06T06:00:30;6.60;;;3.35;;
30036;SDS011;36325;51.512;-0.382;2023-08-06T06:02:57;8.82;;;3.72;;
30036;SDS011;36325;51.512;-0.382;2023-08-06T06:05:27;11.10;;;3.47;;
30036;SDS011;36325;51.512;-0.382;2023-08-06T06:07:56;12.02;;;3.50;;
30036;SDS011;36325;51.512;-0.382;2023-08-06T06:10:24;5.30;;;3.10;;
30036;SDS011;36325;51.512;-0.382;2023-08-06T06:13:01;7.53;;;3.67;;
30036;SDS011;36325;51.512;-0.382;2023-08-06T06:15:34;10.23;;;3.80;;
30036;SDS011;36325;51.512;-0.382;2023-08-06T06:18:07;9.30;;;3.35;;
30036;SDS011;36325;51.512;-0.382;2023-08-06T06:20:42;6.03;;;3.75;;
30036;SDS011;36325;51.512;-0.382;2023-08-06T06:23:10;8.60;;;3.40;;
30036;SDS011;36325;51.512;-0.382;2023-08-06T06:25:48;9.02;;;3.97;;
30036;SDS011;36325;51.512;-0.382;2023-08-06T06:28:19;10.40;;;3.40;;
30036;SDS011;36325;51.512;-0.382;2023-08-06T06:33:43;12.23;;;3.10;;
30036;SDS011;36325;51.512;-0.382;2023-08-06T06:36:13;7.50;;;3.65;;
30036;SDS011;36325;51.512;-0.382;2023-08-06T06:47:30;6.78;;;3.88;;
30036;SDS011;36325;51.512;-0.382;2023-08-06T06:50:06;6.80;;;3.13;;
30036;SDS011;36325;51.512;-0.382;2023-08-06T06:52:34;6.85;;;3.83;;
30036;SDS011;36325;51.512;-0.382;2023-08-06T06:55:03;8.10;;;3.22;;
30036;SDS011;36325;51.512;-0.382;2023-08-06T06:57:46;6.53;;;3.08;;
30036;SDS011;36325;51.512;-0.382;2023-08-06T07:00:27;5.97;;;3.55;;
30036;SDS011;36325;51.512;-0.382;2023-08-06T07:02:59;7.93;;;3.40;;
30036;SDS011;36325;51.512;-0.382;2023-08-06T07:05:27;8.23;;;2.90;;
30036;SDS011;36325;51.512;-0.382;2023-08-06T07:07:56;6.13;;;3.00;;
30036;SDS011;36325;51.512;-0.382;2023-08-06T07:10:26;7.00;;;3.22;;
30036;SDS011;36325;51.512;-0.382;2023-08-06T07:12:54;9.05;;;3.63;;
30036;SDS011;36325;51.512;-0.382;2023-08-06T07:15:24;9.13;;;2.85;;
30036;SDS011;36325;51.512;-0.382;2023-08-06T07:18:07;8.02;;;2.97;;
30036;SDS011;36325;51.512;-0.382;2023-08-06T07:20:36;5.95;;;2.97;;
30036;SDS011;36325;51.512;-0.382;2023-08-06T07:23:11;6.18;;;2.72;;
30036;SDS011;36325;51.512;-0.382;2023-08-06T07:25:46;7.13;;;3.58;;
30036;SDS011;36325;51.512;-0.382;2023-08-06T07:28:17;8.95;;;3.13;;
30036;SDS011;36325;51.512;-0.382;2023-08-06T07:30:45;7.25;;;2.83;;
30036;SDS011;36325;51.512;-0.382;2023-08-06T07:33:16;6.55;;;3.20;;
30036;SDS011;36325;51.512;-0.382;2023-08-06T07:35:45;6.10;;;2.65;;
30036;SDS011;36325;51.512;-0.382;2023-08-06T07:38:12;4.75;;;2.45;;
30036;SDS011;36325;51.512;-0.382;2023-08-06T07:40:40;9.60;;;3.17;;
30036;SDS011;36325;51.512;-0.382;2023-08-06T07:43:08;4.90;;;2.70;;
30036;SDS011;36325;51.512;-0.382;2023-08-06T07:45:39;5.40;;;2.45;;
30036;SDS011;36325;51.512;-0.382;2023-08-06T07:48:06;8.02;;;2.47;;
30036;SDS011;36325;51.512;-0.382;2023-08-06T07:50:38;6.90;;;2.80;;
30036;SDS011;36325;51.512;-0.382;2023-08-06T07:53:06;5.80;;;2.13;;
30036;SDS011;36325;51.512;-0.382;2023-08-06T07:55:34;3.80;;;2.28;;
30036;SDS011;36325;51.512;-0.382;2023-08-06T07:58:03;3.10;;;2.40;;
30036;SDS011;36325;51.512;-0.382;2023-08-06T08:00:31;8.85;;;2.50;;
30036;SDS011;36325;51.512;-0.382;2023-08-06T08:03:00;5.35;;;2.20;;
30036;SDS011;36325;51.512;-0.382;2023-08-06T08:05:31;7.80;;;2.57;;
30036;SDS011;36325;51.512;-0.382;2023-08-06T08:07:59;3.40;;;2.10;;
30036;SDS011;36325;51.512;-0.382;2023-08-06T08:10:27;5.75;;;2.47;;
30036;SDS011;36325;51.512;-0.382;2023-08-06T08:13:03;8.82;;;2.38;;
30036;SDS011;36325;51.512;-0.382;2023-08-06T08:15:45;6.03;;;1.92;;
30036;SDS011;36325;51.512;-0.382;2023-08-06T08:18:26;5.40;;;2.55;;
30036;SDS011;36325;51.512;-0.382;2023-08-06T08:21:04;3.58;;;1.95;;
30036;SDS011;36325;51.512;-0.382;2023-08-06T08:23:34;4.32;;;2.15;;
30036;SDS011;36325;51.512;-0.382;2023-08-06T08:26:02;5.50;;;1.92;;
30036;SDS011;36325;51.512;-0.382;2023-08-06T08:28:30;3.95;;;2.10;;
30036;SDS011;36325;51.512;-0.382;2023-08-06T08:31:02;4.03;;;1.90;;
30036;SDS011;36325;51.512;-0.382;2023-08-06T08:33:38;3.30;;;1.73;;
30036;SDS011;36325;51.512;-0.382;2023-08-06T08:36:08;4.85;;;2.08;;
30036;SDS011;36325;51.512;-0.382;2023-08-06T08:38:38;5.13;;;2.17;;
30036;SDS011;36325;51.512;-0.382;2023-08-06T08:41:15;4.25;;;2.22;;
30036;SDS011;36325;51.512;-0.382;2023-08-06T08:43:43;4.20;;;2.20;;
30036;SDS011;36325;51.512;-0.382;2023-08-06T08:46:11;5.82;;;2.40;;
30036;SDS011;36325;51.512;-0.382;2023-08-06T08:48:43;2.70;;;1.73;;
30036;SDS011;36325;51.512;-0.382;2023-08-06T08:51:11;4.53;;;1.90;;
30036;SDS011;36325;51.512;-0.382;2023-08-06T08:53:39;6.90;;;2.35;;
30036;SDS011;36325;51.512;-0.382;2023-08-06T08:56:14;3.67;;;1.70;;
30036;SDS011;36325;51.512;-0.382;2023-08-06T08:58:58;3.60;;;1.98;;
30036;SDS011;36325;51.512;-0.382;2023-08-06T09:01:30;6.10;;;2.40;;
30036;SDS011;36325;51.512;-0.382;2023-08-06T09:04:04;3.90;;;2.00;;
30036;SDS011;36325;51.512;-0.382;2023-08-06T09:06:36;5.25;;;2.00;;
30036;SDS011;36325;51.512;-0.382;2023-08-06T09:09:08;3.03;;;1.73;;
30036;SDS011;36325;51.512;-0.382;2023-08-06T09:11:45;3.20;;;1.58;;
30036;SDS011;36325;51.512;-0.382;2023-08-06T09:14:16;3.60;;;1.80;;
30036;SDS011;36325;51.512;-0.382;2023-08-06T09:16:44;3.50;;;1.80;;
30036;SDS011;36325;51.512;-0.382;2023-08-06T09:19:13;4.65;;;2.10;;
30036;SDS011;36325;51.512;-0.382;2023-08-06T09:21:48;7.80;;;2.20;;
30036;SDS011;36325;51.512;-0.382;2023-08-06T09:27:17;4.78;;;1.83;;
30036;SDS011;36325;51.512;-0.382;2023-08-06T09:29:46;3.75;;;1.83;;
30036;SDS011;36325;51.512;-0.382;2023-08-06T09:32:17;3.90;;;1.77;;
30036;SDS011;36325;51.512;-0.382;2023-08-06T09:34:46;3.50;;;1.63;;
30036;SDS011;36325;51.512;-0.382;2023-08-06T09:47:07;6.57;;;2.20;;
30036;SDS011;36325;51.512;-0.382;2023-08-06T09:52:04;6.97;;;1.80;;
30036;SDS011;36325;51.512;-0.382;2023-08-06T09:54:46;4.68;;;2.08;;
30036;SDS011;36325;51.512;-0.382;2023-08-06T09:57:40;6.43;;;2.53;;
30036;SDS011;36325;51.512;-0.382;2023-08-06T10:00:12;3.45;;;1.73;;
30036;SDS011;36325;51.512;-0.382;2023-08-06T10:02:46;10.00;;;2.65;;
30036;SDS011;36325;51.512;-0.382;2023-08-06T10:05:16;4.65;;;1.80;;
30036;SDS011;36325;51.512;-0.382;2023-08-06T10:07:45;4.13;;;2.13;;
30036;SDS011;36325;51.512;-0.382;2023-08-06T10:10:23;5.60;;;2.13;;
30036;SDS011;36325;51.512;-0.382;2023-08-06T10:12:54;5.20;;;2.15;;
30036;SDS011;36325;51.512;-0.382;2023-08-06T10:15:28;3.45;;;1.80;;
30036;SDS011;36325;51.512;-0.382;2023-08-06T10:18:04;6.07;;;3.45;;
30036;SDS011;36325;51.512;-0.382;2023-08-06T10:32:17;4.10;;;2.00;;
30036;SDS011;36325;51.512;-0.382;2023-08-06T10:35:28;2.72;;;2.00;;
30036;SDS011;36325;51.512;-0.382;2023-08-06T10:38:08;7.13;;;2.15;;
30036;SDS011;36325;51.512;-0.382;2023-08-06T10:43:52;3.53;;;2.13;;
30036;SDS011;36325;51.512;-0.382;2023-08-06T10:46:41;5.03;;;2.05;;
30036;SDS011;36325;51.512;-0.382;2023-08-06T10:49:08;5.60;;;2.15;;
30036;SDS011;36325;51.512;-0.382;2023-08-06T10:51:45;2.88;;;1.92;;
30036;SDS011;36325;51.512;-0.382;2023-08-06T10:54:28;5.00;;;2.00;;
30036;SDS011;36325;51.512;-0.382;2023-08-06T10:56:55;8.60;;;3.20;;
30036;SDS011;36325;51.512;-0.382;2023-08-06T10:59:34;7.30;;;2.30;;
30036;SDS011;36325;51.512;-0.382;2023-08-06T11:02:02;5.75;;;1.98;;
30036;SDS011;36325;51.512;-0.382;2023-08-06T11:04:38;8.20;;;2.90;;
30036;SDS011;36325;51.512;-0.382;2023-08-06T11:07:06;5.40;;;2.50;;
30036;SDS011;36325;51.512;-0.382;2023-08-06T11:09:34;6.78;;;2.47;;
30036;SDS011;36325;51.512;-0.382;2023-08-06T11:12:19;5.30;;;2.47;;
30036;SDS011;36325;51.512;-0.382;2023-08-06T11:15:03;6.15;;;2.92;;
30036;SDS011;36325;51.512;-0.382;2023-08-06T11:17:32;6.40;;;2.50;;
30036;SDS011;36325;51.512;-0.382;2023-08-06T11:20:03;3.92;;;1.95;;
30036;SDS011;36325;51.512;-0.382;2023-08-06T11:22:33;6.18;;;2.20;;
30036;SDS011;36325;51.512;-0.382;2023-08-06T11:25:06;9.60;;;3.55;;
30036;SDS011;36325;51.512;-0.382;2023-08-06T11:27:36;4.88;;;2.40;;
30036;SDS011;36325;51.512;-0.382;2023-08-06T11:30:14;5.50;;;2.08;;
30036;SDS011;36325;51.512;-0.382;2023-08-06T11:32:46;5.60;;;2.67;;
30036;SDS011;36325;51.512;-0.382;2023-08-06T11:35:17;7.28;;;2.83;;
30036;SDS011;36325;51.512;-0.382;2023-08-06T11:37:47;5.03;;;2.65;;
30036;SDS011;36325;51.512;-0.382;2023-08-06T11:40:15;3.97;;;2.35;;
30036;SDS011;36325;51.512;-0.382;2023-08-06T11:42:46;3.25;;;1.85;;
30036;SDS011;36325;51.512;-0.382;2023-08-06T11:45:14;2.80;;;1.48;;
30036;SDS011;36325;51.512;-0.382;2023-08-06T11:47:49;2.67;;;1.40;;
30036;SDS011;36325;51.512;-0.382;2023-08-06T11:50:29;6.47;;;1.75;;
30036;SDS011;36325;51.512;-0.382;2023-08-06T11:56:07;5.03;;;2.25;;
30036;SDS011;36325;51.512;-0.382;2023-08-06T11:58:43;25.15;;;2.70;;
30036;SDS011;36325;51.512;-0.382;2023-08-06T12:01:13;6.22;;;2.03;;
30036;SDS011;36325;51.512;-0.382;2023-08-06T12:03:41;3.75;;;1.80;;
30036;SDS011;36325;51.512;-0.382;2023-08-06T12:06:10;3.97;;;2.08;;
30036;SDS011;36325;51.512;-0.382;2023-08-06T12:08:38;4.10;;;1.85;;
30036;SDS011;36325;51.512;-0.382;2023-08-06T12:11:10;2.92;;;1.80;;
30036;SDS011;36325;51.512;-0.382;2023-08-06T12:13:37;4.70;;;1.95;;
30036;SDS011;36325;51.512;-0.382;2023-08-06T12:16:20;3.65;;;1.73;;
30036;SDS011;36325;51.512;-0.382;2023-08-06T12:18:49;3.22;;;1.80;;
30036;SDS011;36325;51.512;-0.382;2023-08-06T12:21:20;3.92;;;1.60;;
30036;SDS011;36325;51.512;-0.382;2023-08-06T12:23:49;4.25;;;1.88;;
30036;SDS011;36325;51.512;-0.382;2023-08-06T12:26:25;3.28;;;1.55;;
30036;SDS011;36325;51.512;-0.382;2023-08-06T12:28:59;2.80;;;1.42;;
30036;SDS011;36325;51.512;-0.382;2023-08-06T12:31:34;2.47;;;1.40;;
30036;SDS011;36325;51.512;-0.382;2023-08-06T12:34:02;2.78;;;1.63;;
30036;SDS011;36325;51.512;-0.382;2023-08-06T12:36:35;3.40;;;1.58;;
30036;SDS011;36325;51.512;-0.382;2023-08-06T12:39:03;4.68;;;1.48;;
30036;SDS011;36325;51.512;-0.382;2023-08-06T12:41:32;5.57;;;1.58;;
30036;SDS011;36325;51.512;-0.382;2023-08-06T12:44:01;8.13;;;2.28;;
30036;SDS011;36325;51.512;-0.382;2023-08-06T12:46:51;2.80;;;1.52;;
30036;SDS011;36325;51.512;-0.382;2023-08-06T12:49:20;2.22;;;1.42;;
30036;SDS011;36325;51.512;-0.382;2023-08-06T12:52:00;3.17;;;1.20;;
30036;SDS011;36325;51.512;-0.382;2023-08-06T12:54:29;4.40;;;1.30;;
30036;SDS011;36325;51.512;-0.382;2023-08-06T12:57:12;3.30;;;1.40;;
30036;SDS011;36325;51.512;-0.382;2023-08-06T12:59:39;3.33;;;1.67;;
30036;SDS011;36325;51.512;-0.382;2023-08-06T13:02:11;3.38;;;0.93;;
30036;SDS011;36325;51.512;-0.382;2023-08-06T13:04:39;2.47;;;0.93;;
30036;SDS011;36325;51.512;-0.382;2023-08-06T13:07:07;2.88;;;1.65;;
30036;SDS011;36325;51.512;-0.382;2023-08-06T13:09:36;2.00;;;1.60;;
30036;SDS011;36325;51.512;-0.382;2023-08-06T13:12:12;1.45;;;1.00;;
30036;SDS011;36325;51.512;-0.382;2023-08-06T13:14:43;3.17;;;1.92;;
30036;SDS011;36325;51.512;-0.382;2023-08-06T13:17:13;3.65;;;1.63;;
30036;SDS011;36325;51.512;-0.382;2023-08-06T13:19:46;2.90;;;1.80;;
30036;SDS011;36325;51.512;-0.382;2023-08-06T13:22:15;1.40;;;1.00;;
30036;SDS011;36325;51.512;-0.382;2023-08-06T13:24:47;1.50;;;0.95;;
30036;SDS011;36325;51.512;-0.382;2023-08-06T13:27:15;2.35;;;1.17;;
30036;SDS011;36325;51.512;-0.382;2023-08-06T13:29:43;1.63;;;0.60;;
30036;SDS011;36325;51.512;-0.382;2023-08-06T13:32:11;1.25;;;0.73;;
30036;SDS011;36325;51.512;-0.382;2023-08-06T13:34:41;1.52;;;0.85;;
30036;SDS011;36325;51.512;-0.382;2023-08-06T13:37:11;1.42;;;1.00;;
30036;SDS011;36325;51.512;-0.382;2023-08-06T13:39:42;1.30;;;0.90;;
30036;SDS011;36325;51.512;-0.382;2023-08-06T13:51:24;2.53;;;0.90;;
30036;SDS011;36325;51.512;-0.382;2023-08-06T13:53:53;1.80;;;0.70;;
30036;SDS011;36325;51.512;-0.382;2023-08-06T13:56:39;1.20;;;1.08;;
30036;SDS011;36325;51.512;-0.382;2023-08-06T13:59:20;1.23;;;0.90;;
30036;SDS011;36325;51.512;-0.382;2023-08-06T14:05:13;2.30;;;0.88;;
30036;SDS011;36325;51.512;-0.382;2023-08-06T14:07:41;2.83;;;1.30;;
30036;SDS011;36325;51.512;-0.382;2023-08-06T14:10:09;4.40;;;1.35;;
30036;SDS011;36325;51.512;-0.382;2023-08-06T14:12:44;1.52;;;0.88;;
30036;SDS011;36325;51.512;-0.382;2023-08-06T14:15:18;4.32;;;1.13;;
30036;SDS011;36325;51.512;-0.382;2023-08-06T14:17:47;1.63;;;1.05;;
30036;SDS011;36325;51.512;-0.382;2023-08-06T14:20:16;2.03;;;1.20;;
30036;SDS011;36325;51.512;-0.382;2023-08-06T14:22:58;2.72;;;1.33;;
30036;SDS011;36325;51.512;-0.382;2023-08-06T14:25:30;4.53;;;1.67;;
30036;SDS011;36325;51.512;-0.382;2023-08-06T14:28:15;4.72;;;1.20;;
30036;SDS011;36325;51.512;-0.382;2023-08-06T14:30:49;3.20;;;1.13;;
30036;SDS011;36325;51.512;-0.382;2023-08-06T14:35:52;1.88;;;1.17;;
30036;SDS011;36325;51.512;-0.382;2023-08-06T14:41:50;1.67;;;0.93;;
30036;SDS011;36325;51.512;-0.382;2023-08-06T14:44:20;1.70;;;1.00;;
30036;SDS011;36325;51.512;-0.382;2023-08-06T14:55:57;2.15;;;1.05;;
30036;SDS011;36325;51.512;-0.382;2023-08-06T14:58:26;2.97;;;0.77;;
30036;SDS011;36325;51.512;-0.382;2023-08-06T15:01:00;4.22;;;0.98;;
30036;SDS011;36325;51.512;-0.382;2023-08-06T15:03:29;1.17;;;0.85;;
30036;SDS011;36325;51.512;-0.382;2023-08-06T15:05:59;2.05;;;1.05;;
30036;SDS011;36325;51.512;-0.382;2023-08-06T15:08:28;1.48;;;0.98;;
30036;SDS011;36325;51.512;-0.382;2023-08-06T15:10:56;1.10;;;0.80;;
30036;SDS011;36325;51.512;-0.382;2023-08-06T15:13:23;2.60;;;0.80;;
30036;SDS011;36325;51.512;-0.382;2023-08-06T15:15:56;0.90;;;0.70;;
30036;SDS011;36325;51.512;-0.382;2023-08-06T15:21:18;4.88;;;0.80;;
30036;SDS011;36325;51.512;-0.382;2023-08-06T15:26:55;2.08;;;0.82;;
30036;SDS011;36325;51.512;-0.382;2023-08-06T15:29:27;1.48;;;0.77;;
30036;SDS011;36325;51.512;-0.382;2023-08-06T15:31:55;0.85;;;0.60;;
30036;SDS011;36325;51.512;-0.382;2023-08-06T15:34:38;0.77;;;0.57;;
30036;SDS011;36325;51.512;-0.382;2023-08-06T15:37:08;4.95;;;1.00;;
30036;SDS011;36325;51.512;-0.382;2023-08-06T15:39:38;1.48;;;1.00;;
30036;SDS011;36325;51.512;-0.382;2023-08-06T15:42:10;1.05;;;0.85;;
30036;SDS011;36325;51.512;-0.382;2023-08-06T15:44:40;9.25;;;3.47;;
30036;SDS011;36325;51.512;-0.382;2023-08-06T15:47:09;12.10;;;5.10;;
30036;SDS011;36325;51.512;-0.382;2023-08-06T15:49:45;1.77;;;0.70;;
30036;SDS011;36325;51.512;-0.382;2023-08-06T15:52:18;1.70;;;1.00;;
30036;SDS011;36325;51.512;-0.382;2023-08-06T15:54:45;1.90;;;0.85;;
30036;SDS011;36325;51.512;-0.382;2023-08-06T15:57:26;2.85;;;1.38;;
30036;SDS011;36325;51.512;-0.382;2023-08-06T15:59:56;2.05;;;0.90;;
30036;SDS011;36325;51.512;-0.382;2023-08-06T16:02:25;2.05;;;1.15;;
30036;SDS011;36325;51.512;-0.382;2023-08-06T16:04:58;5.68;;;1.23;;
30036;SDS011;36325;51.512;-0.382;2023-08-06T16:07:35;1.48;;;0.95;;
30036;SDS011;36325;51.512;-0.382;2023-08-06T16:10:05;2.08;;;1.35;;
30036;SDS011;36325;51.512;-0.382;2023-08-06T16:12:38;3.30;;;1.00;;
30036;SDS011;36325;51.512;-0.382;2023-08-06T16:15:21;1.38;;;0.80;;
30036;SDS011;36325;51.512;-0.382;2023-08-06T16:17:54;1.30;;;0.73;;
30036;SDS011;36325;51.512;-0.382;2023-08-06T16:23:27;2.45;;;0.82;;
30036;SDS011;36325;51.512;-0.382;2023-08-06T16:25:55;0.60;;;0.43;;
30036;SDS011;36325;51.512;-0.382;2023-08-06T16:28:23;1.98;;;0.77;;
30036;SDS011;36325;51.512;-0.382;2023-08-06T16:31:06;0.98;;;0.38;;
30036;SDS011;36325;51.512;-0.382;2023-08-06T16:33:41;0.90;;;0.60;;
30036;SDS011;36325;51.512;-0.382;2023-08-06T16:36:12;0.70;;;0.40;;
30036;SDS011;36325;51.512;-0.382;2023-08-06T16:38:49;1.63;;;0.68;;
30036;SDS011;36325;51.512;-0.382;2023-08-06T16:41:17;1.05;;;0.50;;
30036;SDS011;36325;51.512;-0.382;2023-08-06T16:46:20;1.02;;;0.70;;
30036;SDS011;36325;51.512;-0.382;2023-08-06T16:48:59;0.93;;;0.47;;
30036;SDS011;36325;51.512;-0.382;2023-08-06T16:54:02;0.60;;;0.40;;
30036;SDS011;36325;51.512;-0.382;2023-08-06T17:02:09;1.10;;;0.55;;
30036;SDS011;36325;51.512;-0.382;2023-08-06T17:04:51;1.38;;;0.60;;
30036;SDS011;36325;51.512;-0.382;2023-08-06T17:07:20;2.63;;;0.60;;
30036;SDS011;36325;51.512;-0.382;2023-08-06T17:09:54;0.57;;;0.50;;
30036;SDS011;36325;51.512;-0.382;2023-08-06T17:12:21;1.00;;;0.55;;
30036;SDS011;36325;51.512;-0.382;2023-08-06T17:15:03;1.23;;;0.82;;
30036;SDS011;36325;51.512;-0.382;2023-08-06T17:23:09;1.73;;;0.88;;
30036;SDS011;36325;51.512;-0.382;2023-08-06T17:25:39;3.83;;;0.70;;
30036;SDS011;36325;51.512;-0.382;2023-08-06T17:28:08;1.88;;;0.98;;
30036;SDS011;36325;51.512;-0.382;2023-08-06T17:30:53;4.93;;;1.13;;
30036;SDS011;36325;51.512;-0.382;2023-08-06T17:33:38;2.42;;;1.58;;